Time;durP1;ratioP1;P1;durP2;ratioP2;P2;SDS_P1;SDS_P2;PMS_P1;PMS_P2;Temp;Humidity;BMP_temperature;BMP_pressure;BME280_temperature;BME280_humidity;BME280_pressure;Samples;Min_cycle;Max_cycle;Signal;HPM_P1;HPM_P2
2021/01/18 00:00:07;;;;;;;15.30;11.13;;;3.10;99.90;;;;;;5004565;28;20464;-86
2021/01/18 00:02:34;;;;;;;13.17;9.40;;;3.10;99.90;;;;;;4997141;28;20453;-87
2021/01/18 00:05:00;;;;;;;9.93;8.80;;;3.10;99.90;;;;;;5000648;28;20491;-86
2021/01/18 00:07:28;;;;;;;12.70;8.70;;;3.20;99.90;;;;;;5003345;28;20515;-86
2021/01/18 00:09:54;;;;;;;17.00;11.40;;;3.30;99.90;;;;;;4998519;28;20452;-86
2021/01/18 00:12:20;;;;;;;12.67;8.37;;;3.30;99.90;;;;;;4998672;28;21010;-86
2021/01/18 00:14:46;;;;;;;11.97;9.07;;;3.20;99.90;;;;;;4991496;28;20999;-85
2021/01/18 00:17:13;;;;;;;14.67;8.87;;;3.20;99.90;;;;;;4992155;28;20446;-84
2021/01/18 00:19:39;;;;;;;14.47;8.03;;;3.20;99.90;;;;;;4991892;28;20449;-85
2021/01/18 00:22:05;;;;;;;11.13;8.73;;;3.10;99.90;;;;;;4988355;28;20469;-85
2021/01/18 00:24:32;;;;;;;12.00;9.20;;;3.00;99.90;;;;;;4990879;28;20475;-85
2021/01/18 00:26:58;;;;;;;12.80;9.73;;;3.10;99.90;;;;;;4991802;28;20461;-86
2021/01/18 00:29:24;;;;;;;13.63;10.00;;;3.10;99.90;;;;;;4991939;28;20822;-85
2021/01/18 00:31:50;;;;;;;12.60;8.97;;;3.00;99.90;;;;;;4992022;28;20485;-86
2021/01/18 00:34:16;;;;;;;14.57;9.67;;;3.10;99.90;;;;;;4992621;28;20494;-86
2021/01/18 00:36:47;;;;;;;11.80;9.37;;;3.10;99.90;;;;;;4992322;28;20453;-86
2021/01/18 00:39:14;;;;;;;14.90;10.17;;;3.10;99.90;;;;;;4992470;28;20519;-86
2021/01/18 00:41:42;;;;;;;14.17;8.70;;;3.10;99.90;;;;;;4992693;28;20456;-85
2021/01/18 00:44:08;;;;;;;16.33;10.60;;;3.10;99.90;;;;;;4992685;28;20501;-85
2021/01/18 00:46:34;;;;;;;8.90;7.90;;;3.10;99.90;;;;;;4992257;28;20537;-85
2021/01/18 00:49:00;;;;;;;12.30;9.70;;;3.10;99.90;;;;;;4992376;28;20989;-85
2021/01/18 00:51:35;;;;;;;12.80;8.32;;;3.10;99.90;;;;;;4992360;28;20489;-85
2021/01/18 00:54:01;;;;;;;9.73;8.00;;;3.10;99.90;;;;;;4992058;28;20895;-85
2021/01/18 00:56:27;;;;;;;12.97;8.40;;;3.10;99.90;;;;;;4992093;28;21144;-86
2021/01/18 00:58:54;;;;;;;11.85;8.27;;;3.00;99.90;;;;;;4991957;28;20959;-86
2021/01/18 01:01:21;;;;;;;10.83;7.63;;;3.00;99.90;;;;;;4992531;28;20209;-85
2021/01/18 01:03:47;;;;;;;12.68;8.10;;;3.00;99.90;;;;;;4992461;28;20560;-86
2021/01/18 01:06:13;;;;;;;11.53;8.73;;;3.00;99.90;;;;;;4992076;28;20673;-86
2021/01/18 01:08:39;;;;;;;12.03;8.60;;;3.00;99.90;;;;;;4992462;28;20523;-85
2021/01/18 01:11:06;;;;;;;11.63;8.33;;;3.00;99.90;;;;;;4991900;28;21092;-85
2021/01/18 01:13:33;;;;;;;10.93;8.50;;;3.00;99.90;;;;;;4992370;28;20851;-85
2021/01/18 01:16:00;;;;;;;10.20;8.20;;;3.00;99.90;;;;;;4991748;28;20438;-86
2021/01/18 01:18:26;;;;;;;8.73;7.67;;;3.00;99.90;;;;;;4992162;28;20447;-85
2021/01/18 01:20:52;;;;;;;12.50;8.30;;;3.00;99.90;;;;;;4996275;28;20511;-84
2021/01/18 01:23:18;;;;;;;9.47;8.47;;;2.90;99.90;;;;;;5000880;28;20933;-86
2021/01/18 01:25:45;;;;;;;12.25;8.10;;;2.90;99.90;;;;;;5001076;28;20951;-86
2021/01/18 01:28:11;;;;;;;10.27;7.40;;;2.80;99.90;;;;;;5000693;28;20226;-84
2021/01/18 01:30:37;;;;;;;12.10;8.90;;;2.80;99.90;;;;;;4999241;28;20917;-85
2021/01/18 01:33:04;;;;;;;11.70;8.00;;;2.70;99.90;;;;;;5002770;28;20931;-85
2021/01/18 01:35:30;;;;;;;13.27;9.40;;;2.80;99.90;;;;;;5001097;28;20479;-85
2021/01/18 01:37:57;;;;;;;9.57;7.70;;;2.80;99.90;;;;;;5000224;28;20507;-85
2021/01/18 01:40:24;;;;;;;12.32;8.40;;;2.80;99.90;;;;;;5000758;28;20505;-84
2021/01/18 01:42:50;;;;;;;11.43;8.57;;;2.80;99.90;;;;;;5000764;28;20634;-85
2021/01/18 01:45:17;;;;;;;11.43;8.20;;;2.80;99.90;;;;;;5000838;28;20271;-85
2021/01/18 01:47:46;;;;;;;10.95;7.30;;;2.80;99.90;;;;;;4998787;28;20210;-84
2021/01/18 01:50:16;;;;;;;11.30;7.07;;;2.90;99.90;;;;;;5000833;28;20200;-84
2021/01/18 01:52:48;;;;;;;12.27;8.73;;;2.90;99.90;;;;;;4998593;28;20445;-85
2021/01/18 01:55:23;;;;;;;10.80;7.97;;;2.90;99.90;;;;;;5000726;28;20462;-84
2021/01/18 01:57:50;;;;;;;12.93;8.68;;;2.90;99.90;;;;;;5000202;28;21234;-85
2021/01/18 02:00:17;;;;;;;10.75;8.52;;;2.90;99.90;;;;;;5001279;28;20200;-85
2021/01/18 02:02:43;;;;;;;12.60;9.33;;;2.80;99.90;;;;;;4998861;28;20203;-85
2021/01/18 02:05:14;;;;;;;10.10;8.07;;;2.90;99.90;;;;;;5000089;28;20471;-85
2021/01/18 02:07:40;;;;;;;11.23;7.00;;;3.00;99.90;;;;;;4998988;28;20449;-85
2021/01/18 02:10:08;;;;;;;10.20;8.00;;;3.10;99.90;;;;;;5003274;28;20450;-86
2021/01/18 02:12:34;;;;;;;9.90;7.93;;;3.10;99.90;;;;;;5004613;28;20542;-85
2021/01/18 02:15:26;;;;;;;9.77;6.67;;;3.10;99.90;;;;;;5003888;28;20469;-85
2021/01/18 02:18:19;;;;;;;9.80;7.25;;;3.10;99.90;;;;;;5004139;28;20452;-85
2021/01/18 02:21:16;;;;;;;8.97;6.77;;;3.10;99.90;;;;;;5004264;28;20217;-85
2021/01/18 02:24:31;;;;;;;7.80;5.82;;;3.10;99.90;;;;;;5003280;28;20469;-84
2021/01/18 02:27:14;;;;;;;9.00;5.90;;;3.00;99.90;;;;;;4934022;29;20208;-85
2021/01/18 02:30:02;;;;;;;8.93;6.37;;;3.10;99.90;;;;;;5004169;28;20441;-85
2021/01/18 02:33:00;;;;;;;9.73;6.70;;;3.10;99.90;;;;;;5003975;28;20492;-85
2021/01/18 02:36:00;;;;;;;7.93;6.20;;;3.20;99.90;;;;;;5003942;28;20487;-85
2021/01/18 02:38:32;;;;;;;6.90;6.20;;;3.10;99.90;;;;;;4990420;28;20765;-85
2021/01/18 02:41:14;;;;;;;7.23;6.50;;;3.20;99.90;;;;;;5000720;28;20444;-84
2021/01/18 02:43:46;;;;;;;9.50;6.63;;;3.20;99.90;;;;;;5003795;28;20463;-85
2021/01/18 02:46:15;;;;;;;9.23;6.28;;;3.30;99.90;;;;;;5003737;28;20813;-85
2021/01/18 02:48:41;;;;;;;5.73;5.20;;;3.30;99.90;;;;;;5003328;28;20199;-85
2021/01/18 02:51:11;;;;;;;9.50;6.40;;;3.30;99.90;;;;;;5003388;28;20563;-85
2021/01/18 02:53:38;;;;;;;9.77;6.67;;;3.30;99.90;;;;;;5002994;28;20864;-85
2021/01/18 02:56:06;;;;;;;7.72;6.63;;;3.30;99.90;;;;;;5003027;28;20437;-85
2021/01/18 02:58:36;;;;;;;9.60;6.80;;;3.30;99.90;;;;;;5005501;28;20682;-85
2021/01/18 03:01:11;;;;;;;10.40;6.97;;;3.30;99.90;;;;;;5000885;28;20439;-85
2021/01/18 03:03:46;;;;;;;9.17;7.90;;;3.30;99.90;;;;;;5003013;28;20442;-85
2021/01/18 03:06:19;;;;;;;9.40;8.10;;;3.20;99.90;;;;;;5002945;28;20467;-85
2021/01/18 03:08:50;;;;;;;11.33;8.00;;;3.20;99.90;;;;;;5001351;28;20450;-85
2021/01/18 03:11:21;;;;;;;9.80;7.07;;;3.20;99.90;;;;;;5002020;28;20890;-85
2021/01/18 03:13:56;;;;;;;9.37;8.13;;;3.20;99.90;;;;;;5002710;28;20469;-85
2021/01/18 03:16:25;;;;;;;10.50;8.70;;;3.20;99.90;;;;;;5003597;28;20446;-85
2021/01/18 03:18:54;;;;;;;12.37;8.80;;;3.20;99.90;;;;;;5002304;28;20533;-85
2021/01/18 03:21:21;;;;;;;10.60;9.17;;;3.20;99.90;;;;;;5002250;28;20433;-84
2021/01/18 03:23:47;;;;;;;12.17;8.87;;;3.20;99.90;;;;;;5002872;28;20479;-85
2021/01/18 03:26:14;;;;;;;14.37;9.73;;;3.20;99.90;;;;;;5003434;28;20436;-85
2021/01/18 03:28:40;;;;;;;16.63;8.43;;;3.20;99.90;;;;;;5003630;28;20929;-85
2021/01/18 03:31:06;;;;;;;12.20;9.60;;;3.20;99.90;;;;;;5002569;28;20479;-85
2021/01/18 03:33:33;;;;;;;10.20;8.60;;;3.30;99.90;;;;;;5002613;28;20454;-86
2021/01/18 03:35:59;;;;;;;11.07;9.40;;;3.30;99.90;;;;;;5001519;28;20210;-86
2021/01/18 03:38:26;;;;;;;12.80;9.80;;;3.30;99.90;;;;;;5003806;28;20443;-84
2021/01/18 03:40:52;;;;;;;11.20;10.07;;;3.30;99.90;;;;;;5004841;28;20943;-84
2021/01/18 03:43:20;;;;;;;19.30;9.60;;;3.20;99.90;;;;;;5003555;28;20202;-84
2021/01/18 03:45:46;;;;;;;11.70;9.57;;;3.30;99.90;;;;;;5002898;28;20448;-84
2021/01/18 03:48:13;;;;;;;11.93;9.70;;;3.30;99.90;;;;;;4998908;28;20217;-84
2021/01/18 03:50:40;;;;;;;15.85;9.88;;;3.30;99.90;;;;;;5001475;28;20449;-84
2021/01/18 03:53:07;;;;;;;9.43;8.43;;;3.30;99.90;;;;;;5003371;28;20273;-84
2021/01/18 03:55:35;;;;;;;12.60;9.50;;;3.20;99.90;;;;;;5002850;28;21240;-86
2021/01/18 03:58:01;;;;;;;14.52;9.73;;;3.30;99.90;;;;;;5002908;28;20446;-85
2021/01/18 04:00:29;;;;;;;14.40;10.47;;;3.20;99.90;;;;;;5002242;28;20198;-86
2021/01/18 04:02:56;;;;;;;9.07;7.50;;;3.20;99.90;;;;;;5002194;28;20862;-85
2021/01/18 04:05:24;;;;;;;15.70;10.27;;;3.20;99.90;;;;;;5001257;28;20475;-84
2021/01/18 04:07:51;;;;;;;13.30;9.47;;;3.20;99.90;;;;;;5001821;28;20208;-85
2021/01/18 04:10:19;;;;;;;9.77;8.73;;;3.20;99.90;;;;;;5002128;28;20448;-84
2021/01/18 04:12:47;;;;;;;17.60;10.97;;;3.20;99.90;;;;;;5000939;28;20218;-84
2021/01/18 04:15:15;;;;;;;13.30;9.90;;;3.20;99.90;;;;;;4999503;28;20883;-85
2021/01/18 04:17:42;;;;;;;13.30;10.07;;;3.20;99.90;;;;;;5001738;28;20457;-85
2021/01/18 04:20:10;;;;;;;15.60;9.80;;;3.30;99.90;;;;;;5001930;28;20867;-85
2021/01/18 04:22:36;;;;;;;12.80;9.77;;;3.40;99.90;;;;;;5002133;28;20457;-85
2021/01/18 04:25:03;;;;;;;16.98;10.23;;;3.30;99.90;;;;;;5001064;28;20460;-86
2021/01/18 04:27:29;;;;;;;14.17;9.37;;;3.30;99.90;;;;;;5002396;28;20278;-86
2021/01/18 04:29:56;;;;;;;15.77;11.00;;;3.30;99.90;;;;;;5002441;28;20946;-86
2021/01/18 04:32:23;;;;;;;14.20;10.63;;;3.30;99.90;;;;;;5000951;28;20567;-86
2021/01/18 04:34:49;;;;;;;14.00;11.07;;;3.20;99.90;;;;;;5000997;28;20866;-86
2021/01/18 04:37:15;;;;;;;14.13;11.40;;;3.30;99.90;;;;;;5001450;28;20958;-86
2021/01/18 04:39:41;;;;;;;15.70;11.40;;;3.30;99.90;;;;;;5002234;28;20449;-86
2021/01/18 04:42:08;;;;;;;16.73;12.63;;;3.30;99.90;;;;;;5002056;28;20500;-86
2021/01/18 04:44:34;;;;;;;16.97;12.13;;;3.30;99.90;;;;;;5001953;28;20462;-86
2021/01/18 04:47:02;;;;;;;16.90;11.83;;;3.20;99.90;;;;;;5000417;28;20954;-85
2021/01/18 04:49:29;;;;;;;17.50;12.03;;;3.20;99.90;;;;;;5000158;28;20445;-85
2021/01/18 04:51:57;;;;;;;15.20;11.50;;;3.30;99.90;;;;;;5001091;28;20568;-85
2021/01/18 04:54:24;;;;;;;15.10;11.70;;;3.30;99.90;;;;;;5001086;28;20469;-85
2021/01/18 04:57:10;;;;;;;18.57;10.60;;;3.30;99.90;;;;;;5001196;28;20451;-85
2021/01/18 04:59:43;;;;;;;16.00;10.73;;;3.30;99.90;;;;;;5001178;28;20461;-85
2021/01/18 05:02:14;;;;;;;18.60;11.53;;;3.30;99.90;;;;;;5001058;28;20442;-85
2021/01/18 05:04:42;;;;;;;13.20;9.70;;;3.20;99.90;;;;;;5001166;28;21037;-85
2021/01/18 05:07:51;;;;;;;17.73;11.40;;;3.20;99.90;;;;;;5001757;28;20447;-85
2021/01/18 05:10:26;;;;;;;14.00;11.40;;;3.20;99.90;;;;;;4988889;28;20442;-85
2021/01/18 05:12:55;;;;;;;16.42;10.35;;;3.20;99.90;;;;;;5001334;28;20576;-86
2021/01/18 05:15:23;;;;;;;15.80;12.50;;;3.20;99.90;;;;;;5001504;28;20216;-86
2021/01/18 05:17:57;;;;;;;14.70;11.33;;;3.10;99.90;;;;;;5000995;28;20448;-86
2021/01/18 05:20:23;;;;;;;18.00;10.93;;;3.00;99.90;;;;;;5001410;28;20446;-84
2021/01/18 05:22:51;;;;;;;18.75;11.38;;;2.90;99.90;;;;;;5000995;28;20437;-86
2021/01/18 05:25:18;;;;;;;15.20;10.87;;;2.80;99.90;;;;;;5000599;28;20245;-85
2021/01/18 05:28:05;;;;;;;15.40;10.63;;;2.80;99.90;;;;;;5000464;28;20467;-85
2021/01/18 05:30:34;;;;;;;18.30;10.82;;;2.70;99.90;;;;;;5001241;28;20205;-86
2021/01/18 05:33:05;;;;;;;19.13;12.27;;;2.80;99.90;;;;;;4999993;28;20204;-86
2021/01/18 05:35:31;;;;;;;24.17;12.40;;;2.80;99.90;;;;;;4999483;28;20474;-85
2021/01/18 05:38:03;;;;;;;20.25;11.75;;;2.90;99.90;;;;;;4998898;28;20198;-86
2021/01/18 05:40:34;;;;;;;14.48;11.32;;;2.90;99.90;;;;;;4998838;28;20306;-85
2021/01/18 05:43:02;;;;;;;19.00;12.20;;;2.90;99.90;;;;;;4998665;28;20766;-85
2021/01/18 05:45:30;;;;;;;20.63;12.57;;;3.00;99.90;;;;;;5004554;28;20552;-85
2021/01/18 05:47:57;;;;;;;16.33;10.13;;;3.00;99.90;;;;;;5009001;28;20445;-85
2021/01/18 05:50:25;;;;;;;17.40;11.23;;;3.10;99.90;;;;;;5006942;28;20519;-85
2021/01/18 05:52:52;;;;;;;19.45;12.25;;;3.10;99.90;;;;;;5004569;28;20222;-85
2021/01/18 05:55:20;;;;;;;17.33;11.27;;;3.00;99.90;;;;;;5004492;28;20225;-85
2021/01/18 05:57:49;;;;;;;17.73;10.13;;;3.10;99.90;;;;;;5004408;28;20975;-85
2021/01/18 06:00:33;;;;;;;14.87;11.00;;;3.00;99.90;;;;;;5005143;28;20445;-85
2021/01/18 06:03:04;;;;;;;14.30;10.10;;;3.10;99.90;;;;;;5003317;28;20442;-86
2021/01/18 06:05:33;;;;;;;18.40;11.70;;;3.10;99.90;;;;;;5003326;28;20470;-86
2021/01/18 06:08:14;;;;;;;22.90;11.57;;;3.10;99.90;;;;;;5002659;28;20195;-85
2021/01/18 06:10:40;;;;;;;17.07;11.30;;;3.20;99.90;;;;;;5005280;28;21008;-85
2021/01/18 06:13:18;;;;;;;14.00;10.73;;;3.20;99.90;;;;;;5005058;28;21771;-84
2021/01/18 06:15:45;;;;;;;21.03;12.40;;;3.10;99.90;;;;;;5002444;28;20576;-85
2021/01/18 06:18:13;;;;;;;14.33;10.17;;;3.10;99.90;;;;;;5005204;28;20446;-86
2021/01/18 06:20:43;;;;;;;16.30;11.43;;;3.10;99.90;;;;;;5004741;28;20532;-85
2021/01/18 06:23:10;;;;;;;14.13;8.80;;;3.20;99.90;;;;;;5003798;28;20494;-86
2021/01/18 06:25:39;;;;;;;16.17;8.93;;;3.20;99.90;;;;;;5003727;28;20460;-85
2021/01/18 06:28:26;;;;;;;13.25;10.07;;;3.20;99.90;;;;;;5005620;28;20207;-85
2021/01/18 06:30:57;;;;;;;13.00;8.97;;;3.10;99.90;;;;;;5003674;28;20694;-86
2021/01/18 06:33:36;;;;;;;16.50;10.07;;;3.20;99.90;;;;;;5004099;28;20938;-85
2021/01/18 06:36:17;;;;;;;13.93;8.87;;;3.20;99.90;;;;;;4999221;28;20519;-85
2021/01/18 06:38:45;;;;;;;11.70;9.80;;;3.20;99.90;;;;;;5000841;28;20453;-86
2021/01/18 06:41:12;;;;;;;11.50;8.00;;;3.20;99.90;;;;;;5003927;28;20854;-86
2021/01/18 06:43:46;;;;;;;10.00;7.93;;;3.20;99.90;;;;;;5003392;28;20446;-85
2021/01/18 06:46:17;;;;;;;14.03;8.60;;;3.20;99.90;;;;;;5001499;28;20209;-86
2021/01/18 06:48:44;;;;;;;10.60;7.65;;;3.10;99.90;;;;;;5001924;28;20429;-85
2021/01/18 06:51:14;;;;;;;20.23;8.70;;;3.10;99.90;;;;;;5002302;28;20222;-86
2021/01/18 06:53:42;;;;;;;12.43;8.43;;;3.10;99.90;;;;;;5003432;28;20459;-86
2021/01/18 06:56:38;;;;;;;13.40;8.77;;;3.10;99.90;;;;;;5001513;28;20953;-86
2021/01/18 06:59:07;;;;;;;13.80;9.13;;;3.10;99.90;;;;;;4969758;28;20439;-87
2021/01/18 07:01:37;;;;;;;11.88;7.65;;;3.20;99.90;;;;;;5004102;28;20444;-86
2021/01/18 07:04:06;;;;;;;11.97;8.50;;;3.10;99.90;;;;;;5003878;28;20224;-86
2021/01/18 07:06:35;;;;;;;11.60;8.20;;;3.10;99.90;;;;;;5003433;28;20982;-85
2021/01/18 07:09:03;;;;;;;13.13;8.90;;;3.10;99.90;;;;;;5003459;28;20520;-85
2021/01/18 07:11:30;;;;;;;11.60;8.00;;;3.20;99.90;;;;;;4994022;28;20496;-86
2021/01/18 07:13:56;;;;;;;14.33;9.77;;;3.20;99.90;;;;;;5002650;28;20241;-85
2021/01/18 07:16:25;;;;;;;10.30;8.57;;;3.30;99.90;;;;;;4997516;28;20482;-85
2021/01/18 07:18:56;;;;;;;10.77;9.07;;;3.30;99.90;;;;;;4998278;28;20452;-87
2021/01/18 07:21:26;;;;;;;16.40;9.10;;;3.30;99.90;;;;;;5000697;28;20553;-86
2021/01/18 07:23:56;;;;;;;12.77;8.30;;;3.30;99.90;;;;;;5005478;28;20475;-85
2021/01/18 07:26:39;;;;;;;14.87;9.07;;;3.40;99.90;;;;;;5002851;28;20430;-85
2021/01/18 07:29:07;;;;;;;10.33;8.57;;;3.40;99.90;;;;;;5001986;28;20499;-86
2021/01/18 07:31:36;;;;;;;12.53;7.83;;;3.30;99.90;;;;;;5003233;28;20486;-87
2021/01/18 07:34:03;;;;;;;15.73;8.20;;;3.40;99.90;;;;;;5000569;28;20462;-86
2021/01/18 07:36:32;;;;;;;11.00;8.37;;;3.30;99.90;;;;;;4998740;28;20485;-90
2021/01/18 07:38:59;;;;;;;14.43;8.63;;;3.40;99.90;;;;;;5000005;28;20465;-89
2021/01/18 07:41:36;;;;;;;17.70;8.30;;;3.30;99.90;;;;;;5002705;28;20445;-90
2021/01/18 07:44:04;;;;;;;11.63;7.33;;;3.40;99.90;;;;;;4999617;28;20482;-89
2021/01/18 07:46:37;;;;;;;10.73;7.30;;;3.40;99.90;;;;;;5001735;28;20450;-89
2021/01/18 07:49:33;;;;;;;13.00;7.60;;;3.50;99.90;;;;;;5002731;28;20441;-90
2021/01/18 07:52:13;;;;;;;10.43;7.00;;;3.50;99.90;;;;;;4999946;28;20500;-89
2021/01/18 07:54:40;;;;;;;7.27;5.67;;;3.50;99.90;;;;;;5000898;28;20454;-89
2021/01/18 07:57:25;;;;;;;11.33;7.07;;;3.50;99.90;;;;;;5002469;28;20475;-88
2021/01/18 08:00:23;;;;;;;12.43;6.80;;;3.60;99.90;;;;;;5004487;28;20461;-89
2021/01/18 08:02:50;;;;;;;7.50;6.23;;;3.60;99.90;;;;;;5008266;28;20541;-90
2021/01/18 08:05:24;;;;;;;11.73;7.27;;;3.60;99.90;;;;;;5006106;28;20472;-89
2021/01/18 08:08:04;;;;;;;8.93;7.30;;;3.60;99.90;;;;;;5016356;28;20820;-90
2021/01/18 08:10:55;;;;;;;10.90;6.90;;;3.60;99.90;;;;;;4996388;28;20449;-89
2021/01/18 08:13:43;;;;;;;10.87;7.00;;;3.70;99.90;;;;;;5002698;28;20442;-85
2021/01/18 08:16:18;;;;;;;10.30;7.95;;;3.70;99.90;;;;;;5000737;28;20435;-85
2021/01/18 08:19:02;;;;;;;17.43;9.80;;;3.70;99.90;;;;;;5001422;28;20199;-85
2021/01/18 08:21:46;;;;;;;19.33;10.57;;;3.80;99.90;;;;;;4999608;28;20444;-86
2021/01/18 08:24:52;;;;;;;17.27;11.20;;;3.80;99.90;;;;;;5001087;28;20459;-86
2021/01/18 08:27:46;;;;;;;16.33;8.20;;;3.80;99.90;;;;;;5002788;28;20438;-86
2021/01/18 08:30:41;;;;;;;16.80;10.60;;;3.90;99.90;;;;;;4999974;28;20471;-86
2021/01/18 08:33:16;;;;;;;10.33;7.47;;;3.90;99.90;;;;;;4989397;28;20565;-85
2021/01/18 08:35:45;;;;;;;12.70;8.67;;;3.90;99.90;;;;;;4998666;28;20473;-85
2021/01/18 08:38:24;;;;;;;11.27;6.40;;;3.90;99.90;;;;;;5001471;28;20531;-86
2021/01/18 08:40:52;;;;;;;11.23;7.10;;;4.00;99.90;;;;;;5002245;28;20474;-85
2021/01/18 08:43:21;;;;;;;12.07;6.53;;;4.10;99.90;;;;;;5002023;28;20446;-85
2021/01/18 08:45:49;;;;;;;9.57;7.13;;;4.20;99.90;;;;;;5000901;28;20486;-85
2021/01/18 08:48:21;;;;;;;8.30;7.20;;;4.30;99.90;;;;;;5001336;28;20450;-90
2021/01/18 08:50:52;;;;;;;12.70;7.43;;;4.30;99.90;;;;;;4999737;28;20497;-86
2021/01/18 08:53:30;;;;;;;6.47;5.83;;;4.40;99.90;;;;;;5001463;28;20462;-87
2021/01/18 08:55:58;;;;;;;9.50;7.57;;;4.40;99.90;;;;;;5001448;28;20453;-88
2021/01/18 08:58:46;;;;;;;7.53;5.87;;;4.50;99.90;;;;;;4999828;28;20442;-88
2021/01/18 09:01:15;;;;;;;10.93;7.17;;;4.50;99.90;;;;;;4991418;28;20438;-87
2021/01/18 09:03:41;;;;;;;10.00;6.27;;;4.60;99.90;;;;;;5001005;28;20443;-88
2021/01/18 09:06:09;;;;;;;8.83;6.53;;;4.60;99.90;;;;;;4998657;28;20442;-87
2021/01/18 09:08:35;;;;;;;10.10;6.60;;;4.60;99.90;;;;;;4999921;28;20526;-87
2021/01/18 09:11:03;;;;;;;9.83;6.33;;;4.60;99.90;;;;;;5000258;28;20866;-88
2021/01/18 09:13:31;;;;;;;7.50;6.37;;;4.70;99.90;;;;;;4999929;28;20450;-88
2021/01/18 09:16:00;;;;;;;12.90;6.67;;;4.70;99.90;;;;;;5000933;28;21105;-87
2021/01/18 09:18:27;;;;;;;9.03;6.10;;;4.80;99.90;;;;;;5000635;28;20493;-88
2021/01/18 09:20:55;;;;;;;9.20;7.10;;;4.80;99.90;;;;;;4999523;28;20444;-88
2021/01/18 09:23:22;;;;;;;11.73;7.33;;;4.80;99.90;;;;;;5000964;28;20442;-87
2021/01/18 09:25:58;;;;;;;6.70;6.00;;;4.80;99.90;;;;;;5002023;28;20457;-87
2021/01/18 09:28:24;;;;;;;9.57;5.80;;;4.80;99.90;;;;;;4999674;28;20442;-87
2021/01/18 09:30:50;;;;;;;7.93;6.20;;;4.80;99.90;;;;;;5000919;28;20465;-88
2021/01/18 09:33:18;;;;;;;8.03;6.33;;;4.70;99.90;;;;;;5000586;28;20482;-87
2021/01/18 09:35:45;;;;;;;10.50;6.30;;;4.90;99.90;;;;;;5000549;28;20473;-87
2021/01/18 09:38:13;;;;;;;5.90;4.90;;;4.90;99.90;;;;;;4999590;28;20501;-89
2021/01/18 09:40:42;;;;;;;6.57;5.97;;;4.80;99.90;;;;;;4999652;28;20499;-85
2021/01/18 09:43:09;;;;;;;11.80;5.97;;;4.90;99.90;;;;;;4999294;28;21153;-84
2021/01/18 09:45:36;;;;;;;7.90;6.50;;;4.90;99.90;;;;;;5000189;28;20839;-86
2021/01/18 09:48:05;;;;;;;9.00;6.30;;;5.00;99.90;;;;;;5000560;28;20450;-93
2021/01/18 09:50:33;;;;;;;11.60;6.43;;;5.00;99.90;;;;;;5000764;28;20473;-88
2021/01/18 09:53:04;;;;;;;5.77;5.27;;;5.10;99.90;;;;;;5000101;28;20550;-88
2021/01/18 09:55:33;;;;;;;8.90;6.53;;;5.10;99.90;;;;;;5002113;28;20470;-88
2021/01/18 09:58:04;;;;;;;13.33;6.30;;;5.10;99.90;;;;;;4998787;28;20450;-88
2021/01/18 10:00:31;;;;;;;6.73;5.33;;;5.10;99.90;;;;;;5000566;28;20472;-89
2021/01/18 10:03:00;;;;;;;8.43;6.10;;;5.10;99.90;;;;;;5001440;28;20451;-87
2021/01/18 10:05:35;;;;;;;14.17;6.27;;;5.10;99.90;;;;;;5000850;28;20541;-88
2021/01/18 10:08:10;;;;;;;6.63;5.97;;;5.20;99.90;;;;;;5000084;28;20456;-87
2021/01/18 10:10:45;;;;;;;6.13;5.53;;;5.20;99.90;;;;;;5000893;28;20519;-88
2021/01/18 10:13:17;;;;;;;4.73;4.30;;;5.20;99.90;;;;;;4999470;28;20915;-88
2021/01/18 10:15:44;;;;;;;5.53;4.80;;;5.20;99.90;;;;;;4996156;28;20541;-88
2021/01/18 10:18:29;;;;;;;8.30;4.60;;;5.10;99.90;;;;;;5000625;28;20569;-88
2021/01/18 10:20:56;;;;;;;6.17;4.63;;;5.10;99.90;;;;;;5004326;28;20521;-87
2021/01/18 10:23:23;;;;;;;6.20;5.10;;;5.20;99.90;;;;;;4999306;28;20443;-87
2021/01/18 10:25:49;;;;;;;7.23;5.00;;;5.20;99.90;;;;;;4999706;28;20442;-89
2021/01/18 10:28:19;;;;;;;5.53;4.03;;;5.30;99.90;;;;;;5002880;28;20460;-89
2021/01/18 10:30:46;;;;;;;6.00;5.40;;;5.30;99.90;;;;;;5001608;28;20447;-87
2021/01/18 10:33:16;;;;;;;8.00;5.73;;;5.40;99.90;;;;;;5004924;28;20484;-87
2021/01/18 10:35:43;;;;;;;9.00;5.40;;;5.50;99.90;;;;;;5003199;28;20489;-88
2021/01/18 10:38:18;;;;;;;6.00;5.40;;;5.50;99.90;;;;;;5006553;28;20443;-87
2021/01/18 10:41:01;;;;;;;7.83;5.60;;;5.70;99.90;;;;;;5003273;28;20445;-88
2021/01/18 10:43:28;;;;;;;5.50;4.40;;;5.70;99.90;;;;;;5003518;28;20533;-87
2021/01/18 10:45:55;;;;;;;6.47;5.60;;;5.70;99.90;;;;;;5003564;28;20451;-88
2021/01/18 10:48:27;;;;;;;10.70;6.40;;;5.80;99.90;;;;;;5005399;28;20472;-88
2021/01/18 10:50:56;;;;;;;6.97;5.60;;;6.00;99.90;;;;;;5003865;28;20955;-89
2021/01/18 10:53:27;;;;;;;5.23;4.70;;;6.20;99.90;;;;;;5005009;28;20573;-89
2021/01/18 10:56:10;;;;;;;6.03;5.10;;;6.40;99.90;;;;;;5004096;28;21014;-89
2021/01/18 10:58:36;;;;;;;6.27;5.50;;;6.40;99.90;;;;;;5005863;28;20509;-89
2021/01/18 11:01:07;;;;;;;6.07;5.57;;;6.50;99.90;;;;;;5004842;28;20850;-88
2021/01/18 11:03:35;;;;;;;9.57;6.50;;;6.70;99.90;;;;;;5005558;28;20485;-89
2021/01/18 11:06:10;;;;;;;6.17;4.77;;;6.70;99.90;;;;;;5003615;28;20454;-88
2021/01/18 11:08:37;;;;;;;7.57;5.80;;;6.50;99.90;;;;;;5004232;28;20442;-89
2021/01/18 11:11:16;;;;;;;7.23;5.77;;;6.40;99.90;;;;;;5003557;28;20456;-88
2021/01/18 11:13:44;;;;;;;6.73;5.00;;;6.20;99.90;;;;;;5001158;28;20899;-89
2021/01/18 11:16:11;;;;;;;6.47;5.37;;;6.20;99.90;;;;;;5003371;28;20455;-88
2021/01/18 11:18:38;;;;;;;5.47;4.40;;;6.20;99.90;;;;;;5000449;28;20437;-88
2021/01/18 11:21:05;;;;;;;9.80;5.63;;;6.20;99.90;;;;;;5003186;28;20438;-89
2021/01/18 11:23:31;;;;;;;4.50;3.70;;;6.10;99.90;;;;;;5001308;28;20513;-89
2021/01/18 11:25:58;;;;;;;11.37;5.47;;;6.00;99.90;;;;;;5001330;28;20454;-89
2021/01/18 11:28:25;;;;;;;5.10;4.60;;;5.90;99.90;;;;;;5001080;28;20530;-89
2021/01/18 11:30:52;;;;;;;7.20;4.77;;;6.10;99.90;;;;;;5000113;28;20485;-88
2021/01/18 11:33:18;;;;;;;7.83;5.47;;;6.30;99.90;;;;;;5000239;28;20483;-88
2021/01/18 11:35:45;;;;;;;5.63;4.97;;;6.60;99.90;;;;;;4997672;28;20491;-89
2021/01/18 11:38:12;;;;;;;8.57;4.17;;;6.60;99.90;;;;;;5003225;28;20490;-88
2021/01/18 11:40:39;;;;;;;8.67;5.30;;;6.60;99.90;;;;;;5000121;28;20443;-89
2021/01/18 11:43:06;;;;;;;7.27;4.80;;;6.60;99.90;;;;;;5001725;28;20451;-89
2021/01/18 11:45:32;;;;;;;6.17;5.07;;;6.60;99.90;;;;;;5003610;28;20465;-89
2021/01/18 11:47:58;;;;;;;6.13;5.10;;;6.60;99.90;;;;;;5003094;28;20450;-88
2021/01/18 11:50:25;;;;;;;7.37;6.13;;;6.40;99.90;;;;;;5001229;28;20451;-89
2021/01/18 11:52:54;;;;;;;6.93;5.70;;;6.20;99.90;;;;;;5002923;28;20482;-89
2021/01/18 11:55:20;;;;;;;7.60;5.10;;;6.10;99.90;;;;;;5002473;28;20462;-87
2021/01/18 11:57:48;;;;;;;7.97;5.30;;;6.10;99.90;;;;;;5002603;28;20447;-88
2021/01/18 12:00:18;;;;;;;7.30;5.60;;;6.30;99.90;;;;;;5002841;28;20530;-88
2021/01/18 12:02:45;;;;;;;7.07;4.50;;;6.30;99.90;;;;;;5003204;28;20454;-88
2021/01/18 12:05:11;;;;;;;7.70;4.63;;;6.40;99.90;;;;;;5006331;28;20823;-89
2021/01/18 12:07:38;;;;;;;6.07;5.37;;;6.50;99.90;;;;;;5000265;28;20435;-88
2021/01/18 12:10:06;;;;;;;11.77;6.97;;;6.50;99.90;;;;;;5002206;28;20499;-88
2021/01/18 12:12:37;;;;;;;7.50;3.93;;;6.50;99.90;;;;;;5002247;28;20478;-89
2021/01/18 12:15:05;;;;;;;10.13;6.30;;;6.70;99.90;;;;;;5001588;28;20571;-89
2021/01/18 12:17:37;;;;;;;12.70;7.90;;;6.70;99.90;;;;;;5001911;28;20446;-89
2021/01/18 12:20:05;;;;;;;5.20;3.47;;;7.00;99.90;;;;;;5007930;28;20482;-89
2021/01/18 12:22:32;;;;;;;5.67;4.03;;;7.10;99.90;;;;;;5002434;28;20448;-89
2021/01/18 12:24:58;;;;;;;7.00;4.33;;;7.40;99.90;;;;;;5002380;28;20477;-89
2021/01/18 12:27:24;;;;;;;6.70;3.77;;;7.60;99.90;;;;;;5002600;28;20438;-89
2021/01/18 12:29:50;;;;;;;10.33;5.20;;;7.70;99.90;;;;;;5002403;28;20827;-89
2021/01/18 12:35:44;;;;;;;9.60;4.00;;;7.60;99.90;;;;;;5038191;23;20537;-88
2021/01/18 12:38:10;;;;;;;10.43;4.80;;;7.60;99.90;;;;;;5033618;28;20430;-89
2021/01/18 12:40:40;;;;;;;6.00;4.50;;;7.70;99.90;;;;;;5034922;28;20441;-88
2021/01/18 12:43:23;;;;;;;6.43;4.50;;;7.50;99.90;;;;;;5033964;28;20533;-89
2021/01/18 12:49:38;;;;;;;6.20;4.40;;;7.60;99.90;;;;;;4925654;29;20493;-88
2021/01/18 12:52:06;;;;;;;7.33;4.57;;;7.60;99.90;;;;;;4929795;29;21080;-88
2021/01/18 12:54:32;;;;;;;5.33;3.90;;;7.50;99.90;;;;;;4979189;28;20474;-87
2021/01/18 12:56:58;;;;;;;9.57;4.07;;;7.50;99.90;;;;;;5010784;28;20955;-87
2021/01/18 12:59:24;;;;;;;10.50;5.40;;;7.50;99.90;;;;;;5005221;28;20438;-88
2021/01/18 13:01:50;;;;;;;8.30;6.10;;;7.40;99.90;;;;;;5008847;28;20489;-88
2021/01/18 13:04:17;;;;;;;6.30;3.97;;;7.40;99.90;;;;;;5010821;28;20466;-87
2021/01/18 13:06:44;;;;;;;6.97;3.50;;;7.50;99.90;;;;;;5010728;28;20447;-88
2021/01/18 13:09:14;;;;;;;7.00;3.57;;;7.50;99.90;;;;;;5008867;28;20446;-88
2021/01/18 13:11:44;;;;;;;6.77;3.33;;;7.50;99.90;;;;;;5007036;28;20470;-87